createdAt,value
2018-01-26T00:00:02.904Z,-7.11
2018-01-26T00:02:30.533Z,-7.13
2018-01-26T00:04:58.112Z,-7.20
2018-01-26T00:07:25.878Z,-7.12
2018-01-26T00:09:53.552Z,-7.17
2018-01-26T00:12:21.112Z,-7.18
2018-01-26T00:14:49.061Z,-7.23
2018-01-26T00:17:16.742Z,-7.25
2018-01-26T00:19:47.729Z,-7.23
2018-01-26T00:22:18.937Z,-7.31
2018-01-26T00:24:46.723Z,-7.38
2018-01-26T00:27:14.299Z,-7.34
2018-01-26T00:29:41.906Z,-7.33
2018-01-26T00:32:09.654Z,-7.37
2018-01-26T00:34:37.230Z,-7.39
2018-01-26T00:37:04.987Z,-7.39
2018-01-26T00:39:32.555Z,-7.38
2018-01-26T00:42:00.512Z,-7.42
2018-01-26T00:44:28.103Z,-7.41
2018-01-26T00:46:55.678Z,-7.33
2018-01-26T00:49:23.582Z,-7.39
2018-01-26T00:51:51.187Z,-7.39
2018-01-26T00:54:18.759Z,-7.46
2018-01-26T00:56:46.341Z,-7.58
2018-01-26T00:59:13.958Z,-7.60
2018-01-26T01:01:41.618Z,-7.60
2018-01-26T01:04:09.461Z,-7.66
2018-01-26T01:06:37.066Z,-7.74
2018-01-26T01:09:04.717Z,-7.76
2018-01-26T01:11:32.285Z,-7.75
2018-01-26T01:13:59.886Z,-7.77
2018-01-26T01:16:27.597Z,-7.72
2018-01-26T01:18:55.281Z,-7.72
2018-01-26T01:21:23.109Z,-7.75
2018-01-26T01:23:50.777Z,-7.70
2018-01-26T01:26:18.362Z,-7.67
2018-01-26T01:28:45.966Z,-7.71
2018-01-26T01:31:13.531Z,-7.75
2018-01-26T01:33:41.129Z,-7.79
2018-01-26T01:36:08.908Z,-7.87
2018-01-26T01:38:36.505Z,-7.92
2018-01-26T01:41:04.204Z,-7.98
2018-01-26T01:43:31.808Z,-8.04
2018-01-26T01:45:59.385Z,-8.06
2018-01-26T01:48:26.966Z,-8.14
2018-01-26T01:50:54.572Z,-8.17
2018-01-26T01:53:22.313Z,-8.18
2018-01-26T01:55:49.877Z,-8.20
2018-01-26T01:58:17.643Z,-8.24
2018-01-26T02:00:45.280Z,-8.24
2018-01-26T02:03:13.177Z,-8.38
2018-01-26T02:05:41.237Z,-8.30
2018-01-26T02:08:08.807Z,-8.27
2018-01-26T02:10:36.389Z,-8.24
2018-01-26T02:13:04.004Z,-8.26
2018-01-26T02:15:31.596Z,-8.29
2018-01-26T02:17:59.403Z,-8.29
2018-01-26T02:20:27.220Z,-8.29
2018-01-26T02:22:54.881Z,-8.28
2018-01-26T02:25:22.460Z,-8.31
2018-01-26T02:27:50.115Z,-8.35
2018-01-26T02:30:17.703Z,-8.37
2018-01-26T02:32:45.278Z,-8.35
2018-01-26T02:35:12.899Z,-8.39
2018-01-26T02:37:40.481Z,-8.38
2018-01-26T02:40:08.066Z,-8.41
2018-01-26T02:42:35.668Z,-8.44
2018-01-26T02:45:03.237Z,-8.56
2018-01-26T02:47:30.818Z,-8.57
2018-01-26T02:49:58.421Z,-8.56
2018-01-26T02:52:25.988Z,-8.55
2018-01-26T02:54:53.568Z,-8.57
2018-01-26T02:57:21.204Z,-8.59
2018-01-26T02:59:48.782Z,-8.62
2018-01-26T03:02:16.441Z,-8.58
2018-01-26T03:04:44.043Z,-8.75
2018-01-26T03:07:12.012Z,-8.66
2018-01-26T03:09:39.591Z,-8.65
2018-01-26T03:12:07.195Z,-8.56
2018-01-26T03:14:34.765Z,-8.57
2018-01-26T03:17:02.342Z,-8.68
2018-01-26T03:19:30.170Z,-8.69
2018-01-26T03:21:57.761Z,-8.70
2018-01-26T03:24:25.391Z,-8.66
2018-01-26T03:26:53.238Z,-8.72
2018-01-26T03:29:20.791Z,-8.70
2018-01-26T03:31:48.358Z,-8.76
2018-01-26T03:34:15.955Z,-8.72
2018-01-26T03:36:43.532Z,-8.68
2018-01-26T03:39:11.144Z,-8.73
2018-01-26T03:41:38.835Z,-8.73
2018-01-26T03:44:06.512Z,-8.78
2018-01-26T03:46:34.081Z,-8.76
2018-01-26T03:49:01.832Z,-8.76
2018-01-26T03:51:29.421Z,-8.76
2018-01-26T03:53:56.996Z,-8.75
2018-01-26T03:56:24.809Z,-8.78
2018-01-26T03:58:52.378Z,-8.77
2018-01-26T04:01:19.948Z,-8.69
2018-01-26T04:03:47.552Z,-8.64
2018-01-26T04:06:15.427Z,-8.63
2018-01-26T04:08:43.032Z,-8.68
2018-01-26T04:11:10.636Z,-8.66
2018-01-26T04:13:38.204Z,-8.65
2018-01-26T04:16:05.774Z,-8.66
2018-01-26T04:18:33.386Z,-8.70
2018-01-26T04:21:00.966Z,-8.73
2018-01-26T04:23:28.531Z,-8.78
2018-01-26T04:25:56.344Z,-8.80
2018-01-26T04:28:24.003Z,-8.87
2018-01-26T04:30:51.670Z,-8.96
2018-01-26T04:33:19.291Z,-9.01
2018-01-26T04:35:46.925Z,-9.01
2018-01-26T04:38:14.668Z,-9.00
2018-01-26T04:40:42.265Z,-9.02
2018-01-26T04:43:09.828Z,-9.02
2018-01-26T04:45:37.394Z,-9.06
2018-01-26T04:48:05.012Z,-9.10
2018-01-26T04:50:32.596Z,-9.08
2018-01-26T04:53:00.212Z,-9.07
2018-01-26T04:55:27.829Z,-9.10
2018-01-26T04:57:55.536Z,-9.12
2018-01-26T05:00:23.098Z,-9.21
2018-01-26T05:02:50.878Z,-9.22
2018-01-26T05:05:18.751Z,-9.23
2018-01-26T05:07:46.611Z,-9.16
2018-01-26T05:10:14.250Z,-9.22
2018-01-26T05:12:41.915Z,-9.21
2018-01-26T05:15:09.505Z,-9.27
2018-01-26T05:17:37.494Z,-9.18
2018-01-26T05:20:05.084Z,-9.18
2018-01-26T05:22:32.688Z,-9.13
2018-01-26T05:25:00.295Z,-9.10
2018-01-26T05:27:27.879Z,-9.08
2018-01-26T05:29:55.466Z,-8.99
2018-01-26T05:32:23.083Z,-9.01
2018-01-26T05:34:50.672Z,-8.99
2018-01-26T05:37:18.535Z,-8.97
2018-01-26T05:39:46.142Z,-8.97
2018-01-26T05:42:13.709Z,-8.92
2018-01-26T05:44:41.286Z,-8.93
2018-01-26T05:47:08.903Z,-8.76
2018-01-26T05:49:36.476Z,-8.83
2018-01-26T05:52:04.035Z,-8.84
2018-01-26T05:54:31.646Z,-8.75
2018-01-26T05:56:59.233Z,-8.67
2018-01-26T05:59:26.806Z,-8.62
2018-01-26T06:01:54.407Z,-8.58
2018-01-26T06:04:21.982Z,-8.55
2018-01-26T06:06:49.549Z,-8.52
2018-01-26T06:09:17.151Z,-8.17
2018-01-26T06:11:44.717Z,-8.14
2018-01-26T06:14:12.454Z,-8.05
2018-01-26T06:16:40.056Z,-8.20
2018-01-26T06:19:07.798Z,-8.23
2018-01-26T06:21:35.372Z,-8.10
2018-01-26T06:24:03.303Z,-7.03
2018-01-26T06:26:30.883Z,-5.71
2018-01-26T06:28:58.484Z,-4.92
2018-01-26T06:31:26.144Z,-4.25
2018-01-26T06:33:53.745Z,-4.07
2018-01-26T06:36:21.318Z,-4.05
2018-01-26T06:38:48.925Z,-3.66
2018-01-26T06:41:16.499Z,-3.57
2018-01-26T06:43:44.190Z,-3.87
2018-01-26T06:46:11.800Z,-3.26
2018-01-26T06:48:39.384Z,-2.13
2018-01-26T06:51:06.971Z,-1.14
2018-01-26T06:53:34.598Z,-0.82
2018-01-26T06:56:02.165Z,0.02
2018-01-26T06:58:29.737Z,0.23
2018-01-26T07:00:57.418Z,0.70
2018-01-26T07:03:24.996Z,0.92
2018-01-26T07:05:52.558Z,1.48
2018-01-26T07:08:20.142Z,2.46
2018-01-26T07:10:47.881Z,3.47
2018-01-26T07:13:15.527Z,3.67
2018-01-26T07:15:43.184Z,3.25
2018-01-26T07:18:10.855Z,2.89
2018-01-26T07:20:38.425Z,2.76
2018-01-26T07:23:06.044Z,3.55
2018-01-26T07:25:33.857Z,3.94
2018-01-26T07:28:01.431Z,3.59
2018-01-26T07:30:29.182Z,3.54
2018-01-26T07:32:56.819Z,3.76
2018-01-26T07:35:24.505Z,4.33
2018-01-26T07:37:52.360Z,4.08
2018-01-26T07:40:19.932Z,4.50
2018-01-26T07:42:47.492Z,4.86
2018-01-26T07:45:15.079Z,4.12
2018-01-26T07:47:42.812Z,4.37
2018-01-26T07:50:10.419Z,4.71
2018-01-26T07:52:38.024Z,5.00
2018-01-26T07:55:05.592Z,5.67
2018-01-26T07:57:33.162Z,5.71
2018-01-26T08:00:00.771Z,5.72
2018-01-26T08:02:28.349Z,6.90
2018-01-26T08:04:56.018Z,6.88
2018-01-26T08:07:23.883Z,6.50
2018-01-26T08:09:51.509Z,7.11
2018-01-26T08:12:19.089Z,6.96
2018-01-26T08:14:46.683Z,6.89
2018-01-26T08:17:14.250Z,6.87
2018-01-26T08:19:41.838Z,6.70
2018-01-26T08:22:09.443Z,7.18
2018-01-26T08:24:37.034Z,7.07
2018-01-26T08:27:04.614Z,6.98
2018-01-26T08:29:32.219Z,7.36
2018-01-26T08:31:59.832Z,7.31
2018-01-26T08:34:27.392Z,7.25
2018-01-26T08:36:55.039Z,7.27
2018-01-26T08:39:22.700Z,7.14
2018-01-26T08:41:50.267Z,7.51
2018-01-26T08:44:18.030Z,8.16
2018-01-26T08:46:45.590Z,8.18
2018-01-26T08:49:13.329Z,8.14
2018-01-26T08:51:40.962Z,7.88
2018-01-26T08:54:08.552Z,8.31
2018-01-26T08:56:36.325Z,8.56
2018-01-26T08:59:03.914Z,8.68
2018-01-26T09:01:31.645Z,8.85
2018-01-26T09:03:59.210Z,9.27
2018-01-26T09:06:26.818Z,9.35
2018-01-26T09:08:54.409Z,9.64
2018-01-26T09:11:21.968Z,9.86
2018-01-26T09:13:49.751Z,9.70
2018-01-26T09:16:17.413Z,9.81
2018-01-26T09:18:45.000Z,10.00
2018-01-26T09:21:12.624Z,10.75
2018-01-26T09:23:40.236Z,11.23
2018-01-26T09:26:07.825Z,11.48
2018-01-26T09:28:35.440Z,11.56
2018-01-26T09:31:03.022Z,11.45
2018-01-26T09:33:30.629Z,10.99
2018-01-26T09:35:58.248Z,11.40
2018-01-26T09:38:25.837Z,10.95
2018-01-26T09:40:53.424Z,10.98
2018-01-26T09:43:21.078Z,10.92
2018-01-26T09:45:48.660Z,11.29
2018-01-26T09:48:16.235Z,11.74
2018-01-26T09:50:43.869Z,11.74
2018-01-26T09:53:11.525Z,11.82
2018-01-26T09:55:39.187Z,11.68
2018-01-26T09:58:06.797Z,11.77
2018-01-26T10:00:34.398Z,12.16
2018-01-26T10:03:02.013Z,11.92
2018-01-26T10:05:29.736Z,12.42
2018-01-26T10:07:57.332Z,13.56
2018-01-26T10:10:24.917Z,13.81
2018-01-26T10:12:52.529Z,13.68
2018-01-26T10:15:20.092Z,13.79
2018-01-26T10:17:47.673Z,13.90
2018-01-26T10:20:15.284Z,13.82
2018-01-26T10:22:43.078Z,14.18
2018-01-26T10:25:10.722Z,14.70
2018-01-26T10:27:38.508Z,14.57
2018-01-26T10:30:06.085Z,14.07
2018-01-26T10:32:33.722Z,13.89
2018-01-26T10:35:01.342Z,12.81
2018-01-26T10:37:28.923Z,13.16
2018-01-26T10:39:56.500Z,12.95
2018-01-26T10:42:24.124Z,13.80
2018-01-26T10:44:51.703Z,15.92
2018-01-26T10:47:19.316Z,15.23
2018-01-26T10:49:46.954Z,15.77
2018-01-26T10:52:14.534Z,15.67
2018-01-26T10:54:42.875Z,14.76
2018-01-26T10:57:10.529Z,15.23
2018-01-26T10:59:38.116Z,15.31
2018-01-26T11:02:05.710Z,15.31
2018-01-26T11:04:33.322Z,14.84
2018-01-26T11:07:00.894Z,15.63
2018-01-26T11:09:28.464Z,15.37
2018-01-26T11:11:56.071Z,15.46
2018-01-26T11:14:23.785Z,16.21
2018-01-26T11:16:51.409Z,15.55
2018-01-26T11:19:19.083Z,16.12
2018-01-26T11:21:47.231Z,15.90
2018-01-26T11:24:14.839Z,14.85
2018-01-26T11:26:42.701Z,12.20
2018-01-26T11:29:10.275Z,13.37
2018-01-26T11:31:37.834Z,13.42
2018-01-26T11:34:05.426Z,13.99
2018-01-26T11:36:33.005Z,15.19
2018-01-26T11:39:00.572Z,15.74
2018-01-26T11:41:28.169Z,15.32
2018-01-26T11:43:55.742Z,15.33
2018-01-26T11:46:23.432Z,15.07
2018-01-26T11:48:51.129Z,15.62
2018-01-26T11:51:18.693Z,15.54
2018-01-26T11:53:46.265Z,15.38
2018-01-26T11:56:13.852Z,14.51
2018-01-26T11:58:41.405Z,14.03
2018-01-26T12:01:09.000Z,14.91
2018-01-26T12:03:36.579Z,14.34
2018-01-26T12:06:04.134Z,14.94
2018-01-26T12:08:31.773Z,15.94
2018-01-26T12:10:59.367Z,15.70
2018-01-26T12:13:26.944Z,14.18
2018-01-26T12:15:54.514Z,12.94
2018-01-26T12:18:22.115Z,13.88
2018-01-26T12:20:49.683Z,13.94
2018-01-26T12:23:17.233Z,13.68
2018-01-26T12:25:44.876Z,14.42
2018-01-26T12:28:12.484Z,14.77
2018-01-26T12:30:40.088Z,14.70
2018-01-26T12:33:07.730Z,15.31
2018-01-26T12:35:35.302Z,13.34
2018-01-26T12:38:02.871Z,11.83
2018-01-26T12:40:30.459Z,12.31
2018-01-26T12:42:58.083Z,12.86
2018-01-26T12:45:25.660Z,12.40
2018-01-26T12:47:53.274Z,12.22
2018-01-26T12:50:20.822Z,11.65
2018-01-26T12:52:48.369Z,9.21
2018-01-26T12:55:15.970Z,10.43
2018-01-26T12:57:43.533Z,11.38
2018-01-26T13:00:11.189Z,11.13
2018-01-26T13:02:38.873Z,11.77
2018-01-26T13:05:06.463Z,10.51
2018-01-26T13:07:34.025Z,12.24
2018-01-26T13:10:01.651Z,12.20
2018-01-26T13:12:29.206Z,12.67
2018-01-26T13:14:56.835Z,12.74
2018-01-26T13:17:24.447Z,11.29
2018-01-26T13:19:52.002Z,11.38
2018-01-26T13:22:19.575Z,12.30
2018-01-26T13:24:47.171Z,13.10
2018-01-26T13:27:14.731Z,12.92
2018-01-26T13:29:42.291Z,13.22
2018-01-26T13:32:09.903Z,13.52
2018-01-26T13:34:37.650Z,13.40
2018-01-26T13:37:05.218Z,13.85
2018-01-26T13:39:32.825Z,13.96
2018-01-26T13:42:00.381Z,12.80
2018-01-26T13:44:27.952Z,13.13
2018-01-26T13:46:55.766Z,13.50
2018-01-26T13:49:23.344Z,13.85
2018-01-26T13:51:50.931Z,13.44
2018-01-26T13:54:18.530Z,12.89
2018-01-26T13:56:46.113Z,13.50
2018-01-26T13:59:13.717Z,13.11
2018-01-26T14:01:41.336Z,13.07
2018-01-26T14:04:09.032Z,13.67
2018-01-26T14:06:36.656Z,13.01
2018-01-26T14:09:04.323Z,12.01
2018-01-26T14:11:31.958Z,11.16
2018-01-26T14:13:59.567Z,10.56
2018-01-26T14:16:27.158Z,9.74
2018-01-26T14:18:54.716Z,9.00
2018-01-26T14:21:22.295Z,8.77
2018-01-26T14:23:49.887Z,7.47
2018-01-26T14:26:17.486Z,6.85
2018-01-26T14:28:45.204Z,6.47
2018-01-26T14:31:12.946Z,6.05
2018-01-26T14:33:40.521Z,5.62
2018-01-26T14:36:08.085Z,5.15
2018-01-26T14:38:35.685Z,4.89
2018-01-26T14:41:03.251Z,4.63
2018-01-26T14:43:30.804Z,4.46
2018-01-26T14:45:58.416Z,4.26
2018-01-26T14:48:26.000Z,4.21
2018-01-26T14:50:53.543Z,4.11
2018-01-26T14:53:21.124Z,4.06
2018-01-26T14:55:48.684Z,3.95
2018-01-26T14:58:16.289Z,3.82
2018-01-26T15:00:43.888Z,3.83
2018-01-26T15:03:11.458Z,3.80
2018-01-26T15:05:39.037Z,3.64
2018-01-26T15:08:06.754Z,3.48
2018-01-26T15:10:34.323Z,3.37
2018-01-26T15:13:01.905Z,3.31
2018-01-26T15:15:29.499Z,3.13
2018-01-26T15:17:57.067Z,2.95
2018-01-26T15:20:24.639Z,2.84
2018-01-26T15:22:52.322Z,2.93
2018-01-26T15:25:19.895Z,2.99
2018-01-26T15:27:47.442Z,2.98
2018-01-26T15:30:15.037Z,2.68
2018-01-26T15:32:42.703Z,2.60
2018-01-26T15:35:10.250Z,2.38
2018-01-26T15:37:37.865Z,2.28
2018-01-26T15:40:05.409Z,2.06
2018-01-26T15:42:32.964Z,1.94
2018-01-26T15:45:00.559Z,1.75
2018-01-26T15:47:28.123Z,1.61
2018-01-26T15:49:55.671Z,1.61
2018-01-26T15:52:23.300Z,1.40
2018-01-26T15:54:50.867Z,1.36
2018-01-26T15:57:18.414Z,1.17
2018-01-26T15:59:46.150Z,1.25
2018-01-26T16:02:13.702Z,1.15
2018-01-26T16:04:41.277Z,1.07
2018-01-26T16:07:08.877Z,1.11
2018-01-26T16:09:36.483Z,1.08
2018-01-26T16:12:04.085Z,0.96
2018-01-26T16:14:31.675Z,0.90
2018-01-26T16:16:59.238Z,0.99
2018-01-26T16:19:26.804Z,1.05
2018-01-26T16:21:54.399Z,0.93
2018-01-26T16:24:21.954Z,0.75
2018-01-26T16:26:49.501Z,0.64
2018-01-26T16:29:17.252Z,0.63
2018-01-26T16:31:44.797Z,0.57
2018-01-26T16:34:12.348Z,0.63
2018-01-26T16:36:39.931Z,0.67
2018-01-26T16:39:07.505Z,0.64
2018-01-26T16:41:35.107Z,0.48
2018-01-26T16:44:02.727Z,0.35
2018-01-26T16:46:30.298Z,0.24
2018-01-26T16:48:57.886Z,0.11
2018-01-26T16:51:25.483Z,0.03
2018-01-26T16:53:53.055Z,-0.11
2018-01-26T16:56:20.617Z,-0.13
2018-01-26T16:58:48.219Z,-0.16
2018-01-26T17:01:15.769Z,-0.20
2018-01-26T17:03:43.323Z,-0.21
2018-01-26T17:06:11.129Z,-0.26
2018-01-26T17:08:38.852Z,-0.39
2018-01-26T17:11:06.555Z,-0.41
2018-01-26T17:13:35.150Z,-0.39
2018-01-26T17:16:02.714Z,-0.36
2018-01-26T17:18:30.304Z,-0.35
2018-01-26T17:20:57.911Z,-0.37
2018-01-26T17:23:25.502Z,-0.43
2018-01-26T17:25:53.062Z,-0.53
2018-01-26T17:28:20.699Z,-0.59
2018-01-26T17:30:48.482Z,-0.63
2018-01-26T17:33:16.063Z,-0.63
2018-01-26T17:35:43.676Z,-0.71
2018-01-26T17:38:11.248Z,-0.80
2018-01-26T17:40:38.817Z,-0.74
2018-01-26T17:43:06.407Z,-0.75
2018-01-26T17:45:33.991Z,-0.90
2018-01-26T17:48:02.561Z,-0.86
2018-01-26T17:50:30.160Z,-0.96
2018-01-26T17:52:57.878Z,-0.93
2018-01-26T17:55:25.425Z,-0.98
2018-01-26T17:57:53.053Z,-1.01
2018-01-26T18:00:20.665Z,-1.00
2018-01-26T18:02:48.239Z,-1.04
2018-01-26T18:05:17.304Z,-1.11
2018-01-26T18:07:44.882Z,-1.16
2018-01-26T18:10:12.550Z,-1.39
2018-01-26T18:12:40.363Z,-1.30
2018-01-26T18:15:07.935Z,-1.27
2018-01-26T18:17:35.512Z,-1.38
2018-01-26T18:20:03.112Z,-1.41
2018-01-26T18:22:30.713Z,-1.52
2018-01-26T18:24:58.260Z,-1.53
2018-01-26T18:27:25.855Z,-1.50
2018-01-26T18:29:53.422Z,-1.52
2018-01-26T18:32:21.007Z,-1.56
2018-01-26T18:34:48.772Z,-1.61
2018-01-26T18:37:16.342Z,-1.72
2018-01-26T18:39:43.909Z,-1.74
2018-01-26T18:42:11.689Z,-1.76
2018-01-26T18:44:39.250Z,-1.85
2018-01-26T18:47:06.881Z,-1.89
2018-01-26T18:49:34.483Z,-1.86
2018-01-26T18:52:02.055Z,-1.86
2018-01-26T18:54:29.645Z,-1.91
2018-01-26T18:56:57.321Z,-1.99
2018-01-26T18:59:24.893Z,-2.02
2018-01-26T19:01:52.450Z,-1.96
2018-01-26T19:04:20.042Z,-1.96
2018-01-26T19:06:47.628Z,-2.00
2018-01-26T19:09:15.189Z,-2.02
2018-01-26T19:11:42.796Z,-2.06
2018-01-26T19:14:10.358Z,-2.05
2018-01-26T19:16:37.928Z,-2.17
2018-01-26T19:19:05.515Z,-2.28
2018-01-26T19:21:33.099Z,-2.33
2018-01-26T19:24:00.682Z,-2.39
2018-01-26T19:26:33.799Z,-2.47
2018-01-26T19:29:01.349Z,-2.49
2018-01-26T19:31:28.911Z,-2.52
2018-01-26T19:33:56.528Z,-2.55
2018-01-26T19:36:24.092Z,-2.58
2018-01-26T19:38:51.660Z,-2.56
2018-01-26T19:41:19.291Z,-2.54
2018-01-26T19:43:46.886Z,-2.61
2018-01-26T19:46:14.443Z,-2.64
2018-01-26T19:48:41.990Z,-2.71
2018-01-26T19:51:09.661Z,-2.70
2018-01-26T19:53:37.209Z,-2.78
2018-01-26T19:56:04.771Z,-2.86
2018-01-26T19:58:32.398Z,-2.91
2018-01-26T20:00:59.979Z,-2.91
2018-01-26T20:03:32.538Z,-2.97
2018-01-26T20:06:05.788Z,-3.02
2018-01-26T20:08:39.814Z,-3.08
2018-01-26T20:11:07.402Z,-3.12
2018-01-26T20:13:34.995Z,-3.16
2018-01-26T20:16:02.795Z,-3.17
2018-01-26T20:18:30.456Z,-3.21
2018-01-26T20:20:58.039Z,-3.26
2018-01-26T20:23:25.675Z,-3.26
2018-01-26T20:25:53.235Z,-3.30
2018-01-26T20:28:20.812Z,-3.32
2018-01-26T20:30:48.431Z,-3.34
2018-01-26T20:33:15.992Z,-3.38
2018-01-26T20:35:43.611Z,-3.43
2018-01-26T20:38:11.215Z,-3.44
2018-01-26T20:40:38.996Z,-3.51
2018-01-26T20:43:06.594Z,-3.50
2018-01-26T20:45:34.197Z,-3.52
2018-01-26T20:48:01.784Z,-3.49
2018-01-26T20:50:29.454Z,-3.55
2018-01-26T20:52:57.140Z,-3.60
2018-01-26T20:55:24.704Z,-3.58
2018-01-26T20:57:52.278Z,-3.67
2018-01-26T21:00:19.878Z,-3.63
2018-01-26T21:02:47.539Z,-3.62
2018-01-26T21:05:15.112Z,-3.63
2018-01-26T21:07:42.702Z,-3.64
2018-01-26T21:10:13.415Z,-3.68
2018-01-26T21:12:41.086Z,-3.70
2018-01-26T21:15:08.691Z,-3.75
2018-01-26T21:17:36.384Z,-3.81
2018-01-26T21:20:03.939Z,-3.83
2018-01-26T21:22:31.539Z,-3.83
2018-01-26T21:24:59.730Z,-3.84
2018-01-26T21:27:27.295Z,-3.85
2018-01-26T21:29:54.905Z,-3.91
2018-01-26T21:32:22.452Z,-3.96
2018-01-26T21:34:50.225Z,-4.00
2018-01-26T21:37:17.921Z,-3.98
2018-01-26T21:39:46.406Z,-3.96
2018-01-26T21:42:13.968Z,-3.93
2018-01-26T21:44:41.602Z,-3.96
2018-01-26T21:47:09.177Z,-4.00
2018-01-26T21:49:36.865Z,-3.93
2018-01-26T21:52:04.475Z,-3.97
2018-01-26T21:54:32.060Z,-4.02
2018-01-26T21:56:59.634Z,-4.07
2018-01-26T21:59:27.246Z,-4.02
2018-01-26T22:01:54.915Z,-4.08
2018-01-26T22:04:22.527Z,-4.02
2018-01-26T22:06:55.605Z,-4.00
2018-01-26T22:09:23.262Z,-4.01
2018-01-26T22:11:50.882Z,-4.01
2018-01-26T22:14:18.480Z,-4.06
2018-01-26T22:16:46.057Z,-4.04
2018-01-26T22:19:13.614Z,-4.01
2018-01-26T22:21:41.208Z,-4.01
2018-01-26T22:24:08.778Z,-4.06
2018-01-26T22:26:36.345Z,-4.08
2018-01-26T22:29:03.965Z,-4.15
2018-01-26T22:31:31.544Z,-4.11
2018-01-26T22:33:59.349Z,-4.18
2018-01-26T22:36:26.952Z,-4.19
2018-01-26T22:38:54.531Z,-4.23
2018-01-26T22:41:22.106Z,-4.31
2018-01-26T22:43:49.904Z,-4.32
2018-01-26T22:46:17.483Z,-4.37
2018-01-26T22:48:45.040Z,-4.34
2018-01-26T22:51:12.649Z,-4.34
2018-01-26T22:53:40.209Z,-4.34
2018-01-26T22:56:07.784Z,-4.44
2018-01-26T22:58:35.391Z,-4.54
2018-01-26T23:01:02.958Z,-4.51
2018-01-26T23:03:30.539Z,-4.51
2018-01-26T23:05:58.150Z,-4.50
2018-01-26T23:08:25.903Z,-4.54
2018-01-26T23:10:53.472Z,-4.57
2018-01-26T23:13:21.062Z,-4.60
2018-01-26T23:15:48.655Z,-4.61
2018-01-26T23:18:16.218Z,-4.67
2018-01-26T23:20:44.019Z,-4.72
2018-01-26T23:23:11.571Z,-4.75
2018-01-26T23:25:39.135Z,-4.77
2018-01-26T23:28:06.743Z,-4.83
2018-01-26T23:30:34.295Z,-4.74
2018-01-26T23:33:01.857Z,-4.76
2018-01-26T23:35:29.481Z,-4.73
2018-01-26T23:37:57.098Z,-4.74
2018-01-26T23:40:25.582Z,-4.79
2018-01-26T23:42:53.182Z,-4.85
2018-01-26T23:45:20.874Z,-4.86
2018-01-26T23:47:48.481Z,-4.91
2018-01-26T23:50:16.085Z,-4.97
2018-01-26T23:52:43.697Z,-5.00
2018-01-26T23:55:11.492Z,-5.02
2018-01-26T23:57:39.098Z,-5.05
